Time;durP1;ratioP1;P1;durP2;ratioP2;P2;SDS_P1;SDS_P2;PMS_P1;PMS_P2;Temp;Humidity;BMP_temperature;BMP_pressure;BME280_temperature;BME280_humidity;BME280_pressure;Samples;Min_cycle;Max_cycle;Signal;HPM_P1;HPM_P2
2022/04/29 00:00:42;;;;;;;2.23;2.13;;;19.10;43.90;;;;;;5034195;28;20242;-57
2022/04/29 00:03:09;;;;;;;3.83;2.40;;;19.10;43.90;;;;;;5040941;28;20280;-58
2022/04/29 00:05:36;;;;;;;2.17;2.07;;;19.10;43.90;;;;;;5038162;28;20432;-58
2022/04/29 00:08:03;;;;;;;2.70;2.50;;;19.10;43.90;;;;;;5037945;28;20890;-57
2022/04/29 00:10:28;;;;;;;2.60;2.50;;;19.10;43.90;;;;;;5042176;28;20434;-57
2022/04/29 00:12:54;;;;;;;2.70;2.50;;;19.10;43.80;;;;;;5037956;28;20460;-57
2022/04/29 00:15:20;;;;;;;2.53;2.43;;;19.10;43.90;;;;;;5036476;28;20257;-58
2022/04/29 00:17:47;;;;;;;2.60;2.50;;;19.10;43.90;;;;;;5035751;28;20684;-56
2022/04/29 00:20:14;;;;;;;3.00;2.80;;;19.10;43.80;;;;;;5037603;28;20460;-56
2022/04/29 00:22:40;;;;;;;2.90;2.70;;;19.10;43.90;;;;;;5043511;28;20522;-57
2022/04/29 00:25:08;;;;;;;2.60;2.50;;;19.10;43.80;;;;;;5039744;28;20456;-57
2022/04/29 00:27:34;;;;;;;2.67;2.57;;;19.10;43.90;;;;;;5038227;28;20431;-57
2022/04/29 00:29:59;;;;;;;2.50;2.40;;;19.10;43.90;;;;;;5039429;28;20422;-56
2022/04/29 00:32:25;;;;;;;2.77;2.57;;;19.10;43.90;;;;;;5034508;28;20225;-56
2022/04/29 00:34:50;;;;;;;2.70;2.50;;;19.10;43.90;;;;;;5038005;28;20269;-58
2022/04/29 00:37:17;;;;;;;2.37;2.27;;;19.10;43.80;;;;;;5033860;28;20239;-57
2022/04/29 00:39:43;;;;;;;3.07;2.93;;;19.10;43.80;;;;;;5035791;28;20231;-57
2022/04/29 00:42:15;;;;;;;2.67;2.50;;;19.10;43.90;;;;;;5036793;28;20446;-56
2022/04/29 00:44:42;;;;;;;2.60;2.40;;;19.10;43.90;;;;;;5037669;28;20227;-56
2022/04/29 00:47:13;;;;;;;2.23;2.13;;;19.10;43.90;;;;;;5040713;28;20488;-57
2022/04/29 00:49:39;;;;;;;2.70;2.50;;;19.10;43.80;;;;;;5024826;28;20461;-58
2022/04/29 00:52:07;;;;;;;2.80;2.60;;;19.00;43.80;;;;;;5037082;28;20434;-57
2022/04/29 00:54:36;;;;;;;2.90;2.70;;;19.10;43.90;;;;;;5039130;28;20455;-56
2022/04/29 00:57:08;;;;;;;4.93;2.70;;;19.00;43.80;;;;;;5036728;28;20502;-56
2022/04/29 00:59:36;;;;;;;2.50;2.40;;;19.10;43.90;;;;;;5042630;28;20475;-57
2022/04/29 01:02:04;;;;;;;2.73;2.53;;;19.10;43.90;;;;;;5036151;28;20521;-58
2022/04/29 01:04:37;;;;;;;3.00;2.80;;;19.00;43.80;;;;;;5038473;28;20954;-56
2022/04/29 01:07:03;;;;;;;2.37;2.27;;;19.00;43.80;;;;;;5033943;28;20472;-57
2022/04/29 01:09:29;;;;;;;2.80;2.70;;;19.00;43.80;;;;;;5036649;28;20434;-58
2022/04/29 01:11:55;;;;;;;2.90;2.70;;;19.10;43.90;;;;;;5038876;28;20437;-57
2022/04/29 01:14:21;;;;;;;2.97;2.77;;;19.10;43.90;;;;;;5037605;28;20238;-56
2022/04/29 01:16:47;;;;;;;2.70;2.50;;;19.00;43.80;;;;;;5039924;28;20317;-56
2022/04/29 01:19:12;;;;;;;2.73;2.63;;;19.10;43.90;;;;;;5035685;28;20543;-57
2022/04/29 01:21:38;;;;;;;2.53;2.43;;;19.00;43.80;;;;;;5035615;28;20322;-59
2022/04/29 01:24:04;;;;;;;3.20;3.00;;;19.00;43.80;;;;;;5037566;28;20218;-57
2022/04/29 01:26:29;;;;;;;2.77;2.57;;;19.00;43.80;;;;;;5038707;28;21034;-56
2022/04/29 01:28:57;;;;;;;2.60;2.50;;;19.00;43.80;;;;;;5036720;28;20225;-57
2022/04/29 01:31:23;;;;;;;2.53;2.40;;;19.00;43.80;;;;;;5033945;28;20238;-56
2022/04/29 01:33:50;;;;;;;2.73;2.63;;;19.00;43.80;;;;;;5036317;28;20502;-56
2022/04/29 01:36:16;;;;;;;2.40;2.30;;;19.00;43.80;;;;;;5037898;28;20506;-57
2022/04/29 01:38:42;;;;;;;2.70;2.60;;;19.00;43.80;;;;;;5034440;28;20422;-56
2022/04/29 01:41:08;;;;;;;2.57;2.47;;;19.00;43.80;;;;;;5036934;28;20794;-57
2022/04/29 01:43:34;;;;;;;2.77;2.60;;;19.00;43.80;;;;;;5035235;28;20309;-57
2022/04/29 01:46:01;;;;;;;2.57;2.47;;;19.00;43.80;;;;;;5035591;28;20223;-57
2022/04/29 01:48:26;;;;;;;2.27;2.10;;;19.00;43.80;;;;;;5032348;28;20788;-56
2022/04/29 01:50:52;;;;;;;3.10;2.90;;;19.00;43.80;;;;;;5034679;28;20884;-57
2022/04/29 01:53:18;;;;;;;2.73;2.53;;;19.00;43.80;;;;;;5032144;28;20679;-56
2022/04/29 01:55:43;;;;;;;2.57;2.40;;;19.00;43.80;;;;;;5035415;28;20226;-56
2022/04/29 01:58:09;;;;;;;2.50;2.30;;;19.00;43.80;;;;;;5042256;28;20223;-58
2022/04/29 02:00:35;;;;;;;2.53;2.43;;;19.00;43.80;;;;;;5039886;28;20233;-56
2022/04/29 02:03:01;;;;;;;2.77;2.57;;;19.00;43.80;;;;;;5040337;28;20223;-57
2022/04/29 02:05:26;;;;;;;2.40;2.30;;;19.00;43.80;;;;;;5038741;28;20222;-56
2022/04/29 02:07:52;;;;;;;2.33;2.23;;;19.00;43.80;;;;;;5035251;28;20255;-56
2022/04/29 02:10:18;;;;;;;2.83;2.63;;;19.00;43.80;;;;;;5038586;28;20317;-57
2022/04/29 02:12:43;;;;;;;3.20;3.00;;;19.00;43.80;;;;;;5022702;28;20242;-57
2022/04/29 02:15:09;;;;;;;2.77;2.67;;;19.00;43.80;;;;;;5036086;28;20231;-56
2022/04/29 02:17:35;;;;;;;2.77;2.60;;;19.00;43.80;;;;;;5037021;28;20230;-58
2022/04/29 02:20:01;;;;;;;2.40;2.30;;;19.00;43.80;;;;;;5037140;28;20422;-57
2022/04/29 02:22:27;;;;;;;2.63;2.43;;;19.00;43.80;;;;;;5036044;28;20949;-56
2022/04/29 02:24:52;;;;;;;2.27;2.07;;;19.00;43.80;;;;;;5034723;28;20265;-56
2022/04/29 02:27:18;;;;;;;2.47;2.37;;;19.00;43.80;;;;;;5037710;28;20658;-57
2022/04/29 02:29:44;;;;;;;3.00;2.80;;;19.00;43.80;;;;;;5035827;28;20641;-57
2022/04/29 02:32:09;;;;;;;2.83;2.63;;;19.00;43.80;;;;;;5040114;28;20230;-57
2022/04/29 02:34:36;;;;;;;3.10;2.90;;;19.00;43.80;;;;;;5038500;28;20218;-57
2022/04/29 02:37:02;;;;;;;2.90;2.73;;;19.00;43.80;;;;;;5037802;28;20231;-56
2022/04/29 02:39:28;;;;;;;2.70;2.60;;;19.00;43.80;;;;;;5038459;28;20448;-57
2022/04/29 02:41:55;;;;;;;2.80;2.60;;;19.00;43.80;;;;;;5034002;28;20422;-56
2022/04/29 02:44:20;;;;;;;3.17;2.97;;;19.00;43.80;;;;;;5037385;28;20231;-57
2022/04/29 02:49:30;;;;;;;2.47;2.37;;;19.00;43.80;;;;;;5035154;28;20229;-57
2022/04/29 02:51:56;;;;;;;2.90;2.70;;;19.00;43.80;;;;;;5031000;28;20457;-56
2022/04/29 02:54:22;;;;;;;2.37;2.27;;;19.00;43.80;;;;;;5035271;28;20309;-57
2022/04/29 02:56:50;;;;;;;2.50;2.40;;;19.00;43.80;;;;;;5036502;28;20281;-56
2022/04/29 02:59:19;;;;;;;2.77;2.67;;;19.00;43.80;;;;;;5035835;28;20522;-58
2022/04/29 03:01:46;;;;;;;2.73;2.53;;;19.00;43.80;;;;;;5034651;28;20922;-57
2022/04/29 03:04:11;;;;;;;2.90;2.70;;;19.00;43.80;;;;;;5023223;28;20794;-56
2022/04/29 03:06:38;;;;;;;2.60;2.50;;;19.00;43.80;;;;;;5039980;28;20459;-58
2022/04/29 03:09:04;;;;;;;3.03;2.83;;;19.00;43.80;;;;;;5042945;28;20269;-57
2022/04/29 03:11:30;;;;;;;2.80;2.63;;;19.00;43.80;;;;;;5040855;28;20544;-57
2022/04/29 03:13:55;;;;;;;3.20;3.00;;;19.00;43.80;;;;;;5039650;28;20497;-57
2022/04/29 03:16:21;;;;;;;2.67;2.43;;;19.00;44.60;;;;;;5040285;28;20684;-56
2022/04/29 03:18:47;;;;;;;2.90;2.80;;;19.00;43.80;;;;;;5039244;28;20277;-56
2022/04/29 03:21:13;;;;;;;2.73;2.60;;;19.00;43.80;;;;;;5039078;28;20317;-58
2022/04/29 03:23:39;;;;;;;2.67;2.50;;;19.00;43.80;;;;;;5035912;28;20509;-57
2022/04/29 03:26:05;;;;;;;2.87;2.67;;;19.00;43.80;;;;;;5041755;28;20219;-58
2022/04/29 03:28:31;;;;;;;2.50;2.40;;;19.00;43.80;;;;;;5037882;28;20306;-57
2022/04/29 03:30:58;;;;;;;2.80;2.60;;;19.00;43.80;;;;;;5039294;28;20238;-56
2022/04/29 03:33:23;;;;;;;2.87;2.70;;;19.00;43.80;;;;;;5041283;28;20406;-56
2022/04/29 03:35:53;;;;;;;2.70;2.50;;;19.00;43.80;;;;;;5038913;28;20457;-56
2022/04/29 03:38:18;;;;;;;3.10;2.90;;;19.00;43.80;;;;;;5041519;28;20247;-57
2022/04/29 03:40:44;;;;;;;2.60;2.50;;;19.00;43.80;;;;;;5040633;28;20426;-57
2022/04/29 03:43:12;;;;;;;2.77;2.57;;;19.00;43.80;;;;;;5038396;28;20874;-57
2022/04/29 03:45:38;;;;;;;2.97;2.77;;;19.00;44.60;;;;;;5042180;28;20310;-57
2022/04/29 03:48:04;;;;;;;2.60;2.50;;;19.00;43.80;;;;;;5038597;28;20435;-56
2022/04/29 03:50:30;;;;;;;3.20;3.00;;;19.00;43.80;;;;;;5035792;28;20453;-57
2022/04/29 03:53:00;;;;;;;3.23;3.03;;;19.00;43.80;;;;;;5040904;28;20477;-60
2022/04/29 03:55:31;;;;;;;3.17;2.97;;;19.00;43.80;;;;;;5040995;28;20245;-57
2022/04/29 03:57:57;;;;;;;2.80;2.70;;;19.00;43.80;;;;;;5043646;28;20439;-57
2022/04/29 04:00:26;;;;;;;3.10;2.90;;;19.00;43.80;;;;;;5036777;28;20524;-57
2022/04/29 04:02:52;;;;;;;3.10;2.90;;;19.00;43.80;;;;;;5039776;28;20468;-56
2022/04/29 04:05:18;;;;;;;3.00;2.90;;;19.00;43.80;;;;;;5038665;28;20443;-56
2022/04/29 04:07:45;;;;;;;3.13;2.90;;;19.00;43.80;;;;;;5036382;28;20223;-56
2022/04/29 04:10:12;;;;;;;3.13;2.93;;;19.00;43.80;;;;;;5040715;28;20419;-57
2022/04/29 04:12:51;;;;;;;2.70;2.60;;;19.00;43.80;;;;;;5041165;28;20431;-57
2022/04/29 04:15:19;;;;;;;3.03;2.83;;;19.00;43.80;;;;;;5039957;28;20452;-57
2022/04/29 04:17:45;;;;;;;2.60;2.50;;;19.00;43.80;;;;;;5038948;28;20462;-58
2022/04/29 04:20:12;;;;;;;2.53;2.43;;;19.00;43.80;;;;;;5041102;28;20430;-57
2022/04/29 04:22:38;;;;;;;3.20;3.00;;;19.00;43.80;;;;;;5034954;28;20551;-58
2022/04/29 04:25:11;;;;;;;2.70;2.50;;;19.00;43.80;;;;;;5037120;28;20905;-58
2022/04/29 04:27:37;;;;;;;3.07;2.87;;;19.00;43.80;;;;;;5037294;28;20251;-56
2022/04/29 04:30:05;;;;;;;3.30;3.10;;;19.00;43.80;;;;;;5039772;28;20453;-57
2022/04/29 04:32:34;;;;;;;2.60;2.50;;;19.00;43.80;;;;;;5038198;28;20219;-56
2022/04/29 04:35:00;;;;;;;2.90;2.70;;;19.00;43.80;;;;;;5039831;28;20423;-57
2022/04/29 04:37:28;;;;;;;3.23;3.03;;;19.00;43.80;;;;;;5038145;28;20502;-57
2022/04/29 04:39:58;;;;;;;3.07;2.87;;;19.00;43.80;;;;;;5038289;28;20498;-56
2022/04/29 04:42:23;;;;;;;2.70;2.50;;;19.00;43.80;;;;;;5035666;28;20448;-56
2022/04/29 04:44:51;;;;;;;2.33;2.23;;;19.00;43.80;;;;;;5027931;28;20997;-57
2022/04/29 04:47:17;;;;;;;2.60;2.40;;;19.00;43.80;;;;;;5033109;28;20218;-58
2022/04/29 04:49:43;;;;;;;3.03;2.83;;;19.00;43.80;;;;;;5040249;28;20485;-59
2022/04/29 04:52:09;;;;;;;2.70;2.50;;;19.00;43.80;;;;;;5038397;28;20474;-58
2022/04/29 04:54:36;;;;;;;3.20;3.00;;;19.00;43.80;;;;;;5041376;28;20299;-57
2022/04/29 04:57:02;;;;;;;3.27;3.07;;;19.00;43.80;;;;;;5039983;28;20442;-56
2022/04/29 04:59:28;;;;;;;2.87;2.77;;;19.00;43.80;;;;;;5037312;28;20761;-57
2022/04/29 05:01:53;;;;;;;2.80;2.57;;;19.00;43.80;;;;;;5038095;28;20426;-57
2022/04/29 05:04:20;;;;;;;2.77;2.60;;;19.00;43.80;;;;;;5035959;28;20322;-56
2022/04/29 05:06:46;;;;;;;2.63;2.53;;;19.00;43.80;;;;;;5036704;28;20238;-56
2022/04/29 05:09:11;;;;;;;2.60;2.50;;;19.00;43.80;;;;;;5037690;28;20431;-57
2022/04/29 05:11:37;;;;;;;2.70;2.50;;;19.00;43.80;;;;;;5039488;28;20295;-58
2022/04/29 05:14:03;;;;;;;2.40;2.30;;;19.00;43.80;;;;;;5036232;28;20230;-58
2022/04/29 05:16:29;;;;;;;3.00;2.80;;;19.00;43.80;;;;;;5037854;28;20229;-56
2022/04/29 05:18:55;;;;;;;2.80;2.70;;;19.00;43.80;;;;;;5024598;28;20507;-56
2022/04/29 05:21:20;;;;;;;3.10;2.90;;;19.00;43.80;;;;;;5041923;28;20234;-57
2022/04/29 05:23:46;;;;;;;3.83;2.50;;;19.00;43.80;;;;;;5044101;28;20226;-57
2022/04/29 05:26:12;;;;;;;2.50;2.40;;;19.00;43.80;;;;;;5040823;28;20219;-59
2022/04/29 05:28:37;;;;;;;2.77;2.60;;;19.10;43.90;;;;;;5037229;28;20214;-58
2022/04/29 05:31:04;;;;;;;7.07;3.43;;;19.10;43.90;;;;;;5036227;28;20247;-56
2022/04/29 05:33:31;;;;;;;3.30;3.07;;;19.10;43.80;;;;;;5039998;28;20250;-57
2022/04/29 05:35:58;;;;;;;3.70;3.37;;;19.10;43.90;;;;;;5037432;28;20422;-59
2022/04/29 05:38:24;;;;;;;3.50;3.27;;;19.10;43.90;;;;;;5036909;28;20933;-57
2022/04/29 05:43:54;;;;;;;3.67;3.33;;;19.10;43.90;;;;;;5035434;28;20421;-59
2022/04/29 05:46:19;;;;;;;3.03;2.83;;;19.10;43.90;;;;;;5039684;28;20554;-57
2022/04/29 05:48:45;;;;;;;4.10;3.40;;;19.10;43.90;;;;;;5041456;28;20223;-60
2022/04/29 05:51:10;;;;;;;4.00;2.77;;;19.10;43.90;;;;;;5037798;28;20226;-57
2022/04/29 05:53:36;;;;;;;3.47;2.80;;;19.10;43.90;;;;;;5042410;28;20268;-58
2022/04/29 05:56:01;;;;;;;3.17;2.97;;;19.10;43.90;;;;;;5040985;28;20230;-57
2022/04/29 05:58:27;;;;;;;2.70;2.50;;;19.10;43.90;;;;;;5037067;28;20222;-56
2022/04/29 06:00:53;;;;;;;3.67;2.77;;;19.10;43.90;;;;;;5020334;28;20246;-57
2022/04/29 06:03:18;;;;;;;5.00;3.03;;;19.10;43.90;;;;;;5040330;28;20219;-57
2022/04/29 06:05:44;;;;;;;3.30;3.10;;;19.10;43.90;;;;;;5018567;28;20272;-58
2022/04/29 06:08:09;;;;;;;4.77;3.60;;;19.10;43.80;;;;;;5039123;28;20238;-56
2022/04/29 06:10:35;;;;;;;3.20;3.00;;;19.10;43.90;;;;;;5039997;28;20268;-57
2022/04/29 06:13:00;;;;;;;3.23;3.03;;;19.10;43.90;;;;;;5038923;28;20225;-57
2022/04/29 06:15:26;;;;;;;4.43;2.60;;;19.10;43.90;;;;;;5035207;28;20578;-56
2022/04/29 06:17:52;;;;;;;4.57;2.90;;;19.10;43.90;;;;;;5035808;28;20219;-56
2022/04/29 06:20:17;;;;;;;3.13;2.93;;;19.10;43.90;;;;;;5037169;28;20842;-56
2022/04/29 06:22:47;;;;;;;8.10;2.93;;;19.10;44.60;;;;;;5043333;28;20249;-56
2022/04/29 06:25:12;;;;;;;3.23;2.93;;;19.10;43.90;;;;;;5040007;28;20222;-57
2022/04/29 06:27:38;;;;;;;5.77;3.43;;;19.10;43.80;;;;;;5036340;28;20434;-57
2022/04/29 06:30:05;;;;;;;2.80;2.60;;;19.10;43.70;;;;;;5036948;28;20226;-57
2022/04/29 06:32:31;;;;;;;2.80;2.60;;;19.10;43.60;;;;;;5038880;28;20289;-57
2022/04/29 06:34:56;;;;;;;3.30;3.10;;;19.10;43.70;;;;;;5037678;28;20439;-56
2022/04/29 06:37:22;;;;;;;4.07;2.63;;;19.10;43.60;;;;;;5040818;28;20326;-57
2022/04/29 06:39:47;;;;;;;2.90;2.70;;;19.10;43.70;;;;;;5039644;28;20227;-55
2022/04/29 06:42:13;;;;;;;3.10;2.73;;;19.20;43.70;;;;;;5044364;28;20625;-56
2022/04/29 06:44:39;;;;;;;3.00;2.80;;;19.10;43.70;;;;;;5042814;28;20582;-57
2022/04/29 06:47:05;;;;;;;3.03;2.70;;;19.10;43.60;;;;;;5041495;28;20645;-58
2022/04/29 06:49:30;;;;;;;3.27;3.07;;;19.10;43.70;;;;;;5038228;28;20223;-58
2022/04/29 06:51:56;;;;;;;3.10;2.90;;;19.10;43.50;;;;;;5037814;28;20382;-57
2022/04/29 06:54:22;;;;;;;3.30;3.10;;;19.10;43.60;;;;;;5038961;28;20219;-57
2022/04/29 06:56:47;;;;;;;2.63;2.53;;;19.10;43.70;;;;;;5036152;28;20215;-58
2022/04/29 06:59:13;;;;;;;3.03;2.83;;;19.10;43.60;;;;;;5035782;28;20426;-57
2022/04/29 07:01:39;;;;;;;3.00;2.80;;;19.10;43.50;;;;;;5040604;28;20286;-57
2022/04/29 07:04:05;;;;;;;2.63;2.43;;;19.10;43.50;;;;;;5042280;28;20694;-57
2022/04/29 07:06:31;;;;;;;2.80;2.60;;;19.10;43.60;;;;;;5040412;28;20241;-57
2022/04/29 07:08:57;;;;;;;2.83;2.53;;;19.10;43.60;;;;;;5038490;28;20551;-57
2022/04/29 07:11:25;;;;;;;2.83;2.63;;;19.10;43.60;;;;;;5035886;28;20475;-57
2022/04/29 07:13:52;;;;;;;2.87;2.70;;;19.10;43.60;;;;;;5044746;28;20238;-57
2022/04/29 07:16:17;;;;;;;4.80;2.60;;;19.10;43.50;;;;;;5040343;28;20433;-57
2022/04/29 07:18:44;;;;;;;3.13;2.90;;;19.20;43.70;;;;;;5042903;28;20431;-57
2022/04/29 07:21:09;;;;;;;2.77;2.57;;;19.10;43.50;;;;;;5037726;28;20223;-57
2022/04/29 07:23:35;;;;;;;3.17;2.90;;;19.10;43.60;;;;;;5040220;28;20459;-58
2022/04/29 07:26:00;;;;;;;2.87;2.67;;;19.10;43.50;;;;;;5039149;28;20225;-57
2022/04/29 07:28:26;;;;;;;3.60;3.40;;;19.10;43.50;;;;;;5037057;28;20292;-57
2022/04/29 07:30:53;;;;;;;2.70;2.50;;;19.10;43.50;;;;;;5040977;28;20234;-57
2022/04/29 07:33:19;;;;;;;2.60;2.50;;;19.10;43.50;;;;;;5040284;28;20618;-57
2022/04/29 07:44:06;;;;;;;3.00;2.43;;;19.10;43.60;;;;;;5038725;28;20463;-57
2022/04/29 07:46:32;;;;;;;4.50;2.60;;;19.10;43.60;;;;;;5039827;28;20465;-57
2022/04/29 07:48:58;;;;;;;2.70;2.50;;;19.10;43.60;;;;;;5037925;28;20922;-57
2022/04/29 07:51:23;;;;;;;3.30;2.60;;;19.10;43.60;;;;;;5038676;28;20426;-57
2022/04/29 07:53:49;;;;;;;2.80;2.60;;;19.10;43.50;;;;;;5038928;28;20285;-57
2022/04/29 07:56:15;;;;;;;3.90;2.90;;;19.10;43.50;;;;;;5037059;28;20279;-57
2022/04/29 07:58:41;;;;;;;4.40;2.60;;;19.10;43.50;;;;;;5040884;28;20212;-57
2022/04/29 08:01:09;;;;;;;2.57;2.20;;;19.10;43.50;;;;;;5041934;28;20434;-57
2022/04/29 08:03:36;;;;;;;3.20;3.03;;;19.10;43.50;;;;;;5043355;28;20223;-57
2022/04/29 08:06:04;;;;;;;2.70;2.50;;;19.10;43.50;;;;;;5039719;28;20447;-57
2022/04/29 08:08:30;;;;;;;2.73;2.63;;;19.10;43.50;;;;;;5040015;28;20427;-57
2022/04/29 08:10:55;;;;;;;2.60;2.50;;;19.10;43.50;;;;;;5039092;28;20529;-57
2022/04/29 08:13:21;;;;;;;2.23;2.13;;;19.10;43.50;;;;;;5032636;28;20313;-57
2022/04/29 08:15:48;;;;;;;2.97;2.80;;;19.10;43.60;;;;;;5041133;28;20237;-57
2022/04/29 08:18:13;;;;;;;2.60;2.40;;;19.20;43.60;;;;;;5038557;28;20605;-57
2022/04/29 08:20:40;;;;;;;3.40;2.73;;;19.10;43.50;;;;;;5038564;28;20425;-57
2022/04/29 08:23:06;;;;;;;2.50;2.37;;;19.20;43.70;;;;;;5039750;28;20210;-58
2022/04/29 08:25:32;;;;;;;2.67;2.57;;;19.20;43.70;;;;;;5040182;28;20862;-58
2022/04/29 08:28:00;;;;;;;2.23;2.03;;;19.20;43.60;;;;;;5037490;28;20242;-57
2022/04/29 08:30:29;;;;;;;2.47;2.27;;;19.20;43.60;;;;;;5037006;28;20881;-57
2022/04/29 08:32:54;;;;;;;2.67;2.47;;;19.20;43.60;;;;;;5039521;28;20434;-58
2022/04/29 08:35:20;;;;;;;3.23;2.73;;;19.20;43.60;;;;;;5044346;28;20406;-58
2022/04/29 08:37:46;;;;;;;2.80;2.60;;;19.10;43.50;;;;;;5043381;28;20257;-57
2022/04/29 08:40:12;;;;;;;2.67;2.57;;;19.20;43.60;;;;;;5040120;28;20223;-58
2022/04/29 08:42:38;;;;;;;3.83;2.40;;;19.20;43.70;;;;;;5041652;28;20581;-58
2022/04/29 08:45:09;;;;;;;2.70;2.50;;;19.20;43.60;;;;;;5035399;28;20505;-57
2022/04/29 08:47:38;;;;;;;2.70;2.50;;;19.20;43.60;;;;;;5042819;28;20443;-58
2022/04/29 08:50:09;;;;;;;2.60;2.40;;;19.20;43.50;;;;;;5037712;28;20459;-57
2022/04/29 08:52:35;;;;;;;2.70;2.50;;;19.20;43.60;;;;;;5036275;28;20519;-58
2022/04/29 09:00:38;;;;;;;2.50;2.30;;;19.20;43.60;;;;;;5036503;28;20473;-57
2022/04/29 09:03:06;;;;;;;2.90;2.70;;;19.20;43.60;;;;;;5038482;28;20415;-58
2022/04/29 09:05:33;;;;;;;2.50;2.40;;;19.20;43.60;;;;;;5041112;28;20448;-58
2022/04/29 09:08:02;;;;;;;2.70;2.50;;;19.20;43.60;;;;;;5037289;28;20430;-57
2022/04/29 09:10:35;;;;;;;3.13;2.83;;;19.20;43.60;;;;;;5039823;28;20421;-57
2022/04/29 09:13:11;;;;;;;2.33;2.23;;;19.20;43.60;;;;;;5035718;28;20419;-58
2022/04/29 09:15:38;;;;;;;2.20;2.10;;;19.20;43.60;;;;;;5037799;28;20458;-58
2022/04/29 09:18:03;;;;;;;3.23;2.73;;;19.20;43.60;;;;;;5038104;28;20506;-57
2022/04/29 09:20:29;;;;;;;2.23;2.13;;;19.20;44.30;;;;;;5039853;28;21194;-57
2022/04/29 09:22:55;;;;;;;2.30;2.07;;;19.20;43.60;;;;;;5037380;28;20312;-57
2022/04/29 09:25:21;;;;;;;2.60;2.47;;;19.20;44.50;;;;;;5039692;28;20951;-57
2022/04/29 09:28:04;;;;;;;2.07;1.97;;;19.20;43.70;;;;;;5036008;28;20325;-57
2022/04/29 09:30:41;;;;;;;2.60;2.40;;;19.20;43.70;;;;;;5037147;28;20419;-57
2022/04/29 09:33:27;;;;;;;2.70;2.50;;;19.20;43.70;;;;;;5035993;28;20467;-57
2022/04/29 09:35:54;;;;;;;2.50;2.30;;;19.10;43.60;;;;;;5038206;28;20895;-57
2022/04/29 09:41:05;;;;;;;2.33;2.13;;;19.20;43.90;;;;;;5038747;28;20528;-58
2022/04/29 09:43:35;;;;;;;2.80;2.60;;;19.20;43.90;;;;;;5035565;28;20966;-60
2022/04/29 09:46:18;;;;;;;2.30;2.20;;;19.20;43.90;;;;;;5029426;28;20414;-58
2022/04/29 09:48:51;;;;;;;2.40;2.30;;;19.20;43.90;;;;;;5033505;28;20453;-57
2022/04/29 09:51:46;;;;;;;3.30;3.00;;;19.20;43.90;;;;;;5040229;28;20426;-58
2022/04/29 09:54:18;;;;;;;2.57;2.37;;;19.20;43.90;;;;;;5035700;28;20978;-57
2022/04/29 09:56:45;;;;;;;2.73;2.63;;;19.20;44.00;;;;;;5035096;28;20452;-57
2022/04/29 09:59:12;;;;;;;2.67;2.50;;;19.20;44.00;;;;;;5039238;28;20431;-57
2022/04/29 10:01:38;;;;;;;2.50;2.40;;;19.10;44.60;;;;;;5034257;28;20930;-57
2022/04/29 10:04:04;;;;;;;2.70;2.50;;;19.10;43.80;;;;;;5033125;28;20459;-58
2022/04/29 10:06:32;;;;;;;2.20;2.10;;;19.10;43.90;;;;;;5036107;28;20338;-57
2022/04/29 10:08:59;;;;;;;2.87;2.67;;;19.20;44.00;;;;;;5035562;28;21002;-58
2022/04/29 10:11:27;;;;;;;2.50;2.40;;;19.10;43.90;;;;;;5039807;28;21148;-57
2022/04/29 10:13:53;;;;;;;2.50;2.30;;;19.10;43.90;;;;;;5027562;28;20514;-57
2022/04/29 10:16:19;;;;;;;2.80;2.60;;;19.10;43.90;;;;;;5044922;28;20480;-57
2022/04/29 10:21:46;;;;;;;2.40;2.30;;;19.10;43.90;;;;;;5042450;28;20438;-57
2022/04/29 10:24:12;;;;;;;2.50;2.30;;;19.10;43.90;;;;;;5041384;28;20546;-58
2022/04/29 10:26:38;;;;;;;2.27;2.17;;;19.10;43.90;;;;;;5036864;28;20499;-58
2022/04/29 10:29:05;;;;;;;2.53;2.33;;;19.10;43.90;;;;;;5042039;28;20434;-58
2022/04/29 10:31:30;;;;;;;2.97;2.77;;;19.10;43.90;;;;;;5042957;28;20479;-58
2022/04/29 10:34:25;;;;;;;2.90;2.60;;;19.10;43.90;;;;;;5040450;28;20806;-58
2022/04/29 10:36:51;;;;;;;2.33;2.23;;;19.10;43.90;;;;;;5036850;28;20318;-58
2022/04/29 10:39:21;;;;;;;2.90;2.70;;;19.10;43.90;;;;;;5038905;28;20535;-58
2022/04/29 10:42:02;;;;;;;2.43;2.33;;;19.10;43.90;;;;;;5037296;28;20219;-57
2022/04/29 10:44:28;;;;;;;2.63;2.43;;;19.10;43.90;;;;;;5039899;28;20436;-58
2022/04/29 10:46:54;;;;;;;2.90;2.80;;;19.10;43.80;;;;;;5043759;28;20805;-57
2022/04/29 10:49:26;;;;;;;2.87;2.67;;;19.10;43.90;;;;;;5037303;28;20464;-58
2022/04/29 10:51:55;;;;;;;2.63;2.53;;;19.10;43.90;;;;;;5043919;28;20234;-58
2022/04/29 10:54:33;;;;;;;3.23;3.03;;;19.10;43.90;;;;;;5042558;28;20419;-58
2022/04/29 10:57:07;;;;;;;3.60;3.40;;;19.10;43.90;;;;;;5044573;28;20447;-59
2022/04/29 10:59:52;;;;;;;3.10;2.80;;;19.10;43.90;;;;;;5044471;28;20455;-58
2022/04/29 11:02:28;;;;;;;2.93;2.63;;;19.10;43.90;;;;;;5038406;28;20422;-58
2022/04/29 11:04:55;;;;;;;3.03;2.83;;;19.10;43.90;;;;;;5037404;28;20497;-58
2022/04/29 11:07:33;;;;;;;3.23;3.00;;;19.10;43.80;;;;;;5041645;28;20523;-58
2022/04/29 11:09:58;;;;;;;3.10;3.00;;;19.10;44.60;;;;;;5038203;28;20423;-58
2022/04/29 11:12:34;;;;;;;3.20;3.00;;;19.10;43.90;;;;;;5041140;28;20419;-58
2022/04/29 11:15:15;;;;;;;3.33;3.13;;;19.10;43.90;;;;;;5043664;28;20226;-58
2022/04/29 11:17:41;;;;;;;3.17;3.00;;;19.10;43.80;;;;;;5043411;28;20459;-58
2022/04/29 11:20:25;;;;;;;2.70;2.60;;;19.10;43.90;;;;;;5042870;28;20444;-58
2022/04/29 11:25:56;;;;;;;5.27;2.77;;;19.10;43.90;;;;;;5012548;28;20502;-57
2022/04/29 11:28:22;;;;;;;3.17;2.97;;;19.10;44.60;;;;;;5052545;28;20438;-58
2022/04/29 11:30:50;;;;;;;3.40;3.20;;;19.10;43.90;;;;;;5041092;28;20832;-58
2022/04/29 11:33:21;;;;;;;2.77;2.60;;;19.10;43.90;;;;;;5038664;28;20449;-58
2022/04/29 11:35:51;;;;;;;2.97;2.77;;;19.10;43.90;;;;;;5034968;28;20516;-58
2022/04/29 11:38:17;;;;;;;6.57;3.20;;;19.10;43.90;;;;;;5038589;28;20416;-58
2022/04/29 11:40:42;;;;;;;3.50;3.30;;;19.10;43.90;;;;;;5034827;28;20433;-58
2022/04/29 11:43:10;;;;;;;3.00;2.80;;;19.10;43.80;;;;;;5039101;28;20229;-58
2022/04/29 11:45:37;;;;;;;3.70;3.50;;;19.10;43.90;;;;;;5038344;28;20289;-58
2022/04/29 11:48:07;;;;;;;3.47;3.27;;;19.10;43.90;;;;;;5037200;28;20415;-58
2022/04/29 11:50:34;;;;;;;3.27;3.07;;;19.10;43.90;;;;;;5026881;28;20484;-58
2022/04/29 11:53:06;;;;;;;3.40;3.20;;;19.10;43.90;;;;;;5040437;28;20418;-58
2022/04/29 11:55:32;;;;;;;3.13;2.93;;;19.10;43.90;;;;;;5037895;28;20445;-58
2022/04/29 11:57:58;;;;;;;3.60;2.90;;;19.10;43.90;;;;;;5039062;28;20437;-58
2022/04/29 12:00:30;;;;;;;3.60;3.30;;;19.10;43.90;;;;;;5043281;28;20461;-58
2022/04/29 12:02:56;;;;;;;3.27;3.07;;;19.10;43.90;;;;;;5032346;28;20226;-58
2022/04/29 12:05:24;;;;;;;3.30;3.10;;;19.10;43.90;;;;;;5032781;28;20902;-58
2022/04/29 12:07:50;;;;;;;3.13;2.93;;;19.10;43.90;;;;;;5040442;28;20442;-58
2022/04/29 12:10:24;;;;;;;3.40;3.20;;;19.10;43.90;;;;;;5040057;28;20419;-58
2022/04/29 12:12:54;;;;;;;3.77;3.57;;;19.10;43.90;;;;;;5041520;28;20446;-58
2022/04/29 12:15:25;;;;;;;3.40;2.97;;;19.10;43.80;;;;;;5036537;28;20477;-58
2022/04/29 12:17:50;;;;;;;3.60;3.30;;;19.10;43.90;;;;;;5039490;28;20506;-58
2022/04/29 12:20:20;;;;;;;3.17;2.97;;;19.10;43.90;;;;;;5041388;28;20880;-58
2022/04/29 12:22:52;;;;;;;3.17;2.97;;;19.10;43.90;;;;;;5033690;28;20662;-58
2022/04/29 12:25:24;;;;;;;3.20;3.00;;;19.10;43.80;;;;;;5039209;28;20506;-58
2022/04/29 12:28:13;;;;;;;3.50;3.30;;;19.10;43.90;;;;;;5040106;28;20426;-58
2022/04/29 12:36:13;;;;;;;3.40;3.20;;;19.10;43.90;;;;;;5039879;28;21049;-58
2022/04/29 12:38:44;;;;;;;3.37;3.17;;;19.10;43.90;;;;;;5036563;28;20762;-58
2022/04/29 12:41:21;;;;;;;3.40;3.20;;;19.10;43.80;;;;;;5044509;28;20535;-58
2022/04/29 12:43:47;;;;;;;3.17;2.97;;;19.10;43.90;;;;;;5039216;28;20419;-58
2022/04/29 12:46:20;;;;;;;3.17;2.97;;;19.10;43.90;;;;;;5042129;28;20484;-58
2022/04/29 12:48:55;;;;;;;3.10;2.80;;;19.10;43.90;;;;;;5043579;28;20694;-58
2022/04/29 15:17:17;;;;;;;4.03;3.73;;;18.40;43.10;;;;;;5094219;27;20577;-56
2022/04/29 15:19:43;;;;;;;6.27;3.10;;;19.10;43.90;;;;;;5101061;27;20449;-56
2022/04/29 15:22:09;;;;;;;3.30;3.10;;;19.00;43.80;;;;;;5094226;27;20867;-56
2022/04/29 15:24:36;;;;;;;3.40;3.10;;;18.90;43.80;;;;;;5093116;27;20461;-56
2022/04/29 15:27:01;;;;;;;3.47;3.27;;;18.90;43.90;;;;;;5091255;27;20585;-56
2022/04/29 15:29:27;;;;;;;4.03;3.73;;;18.90;44.10;;;;;;5093689;27;20954;-58
2022/04/29 15:31:53;;;;;;;6.10;4.10;;;18.90;44.20;;;;;;5097484;27;20213;-56
2022/04/29 15:34:19;;;;;;;3.30;2.80;;;18.90;44.20;;;;;;5098910;27;20275;-56
2022/04/29 15:36:46;;;;;;;3.40;2.70;;;18.90;44.10;;;;;;5087183;27;20224;-57
2022/04/29 15:39:14;;;;;;;5.93;4.10;;;18.90;44.20;;;;;;5091067;27;20811;-56
2022/04/29 15:41:44;;;;;;;4.00;3.60;;;18.90;44.10;;;;;;5096597;27;20768;-56
2022/04/29 15:44:09;;;;;;;3.10;2.90;;;18.90;44.00;;;;;;5100963;27;20497;-56
2022/04/29 15:46:35;;;;;;;2.83;2.73;;;18.90;44.00;;;;;;5099404;27;20523;-56
2022/04/29 15:49:00;;;;;;;2.83;2.73;;;18.90;44.00;;;;;;5093245;27;20247;-56